sensor_id;sensor_type;location;lat;lon;timestamp;P1;durP1;ratioP1;P2;durP2;ratioP2
16478;SDS011;8350;52.316;10.530;2023-05-29T00:00:20;7.63;;;4.20;;
16478;SDS011;8350;52.316;10.530;2023-05-29T00:02:48;7.28;;;4.00;;
16478;SDS011;8350;52.316;10.530;2023-05-29T00:05:17;7.22;;;4.18;;
16478;SDS011;8350;52.316;10.530;2023-05-29T00:07:44;6.00;;;3.78;;
16478;SDS011;8350;52.316;10.530;2023-05-29T00:10:11;4.85;;;3.55;;
16478;SDS011;8350;52.316;10.530;2023-05-29T00:12:41;5.40;;;3.80;;
16478;SDS011;8350;52.316;10.530;2023-05-29T00:15:09;4.13;;;3.13;;
16478;SDS011;8350;52.316;10.530;2023-05-29T00:17:37;7.75;;;3.80;;
16478;SDS011;8350;52.316;10.530;2023-05-29T00:20:05;5.50;;;3.50;;
16478;SDS011;8350;52.316;10.530;2023-05-29T00:22:34;6.25;;;3.63;;
16478;SDS011;8350;52.316;10.530;2023-05-29T00:25:05;7.13;;;3.90;;
16478;SDS011;8350;52.316;10.530;2023-05-29T00:27:34;6.13;;;3.70;;
16478;SDS011;8350;52.316;10.530;2023-05-29T00:30:03;5.60;;;3.70;;
16478;SDS011;8350;52.316;10.530;2023-05-29T00:32:31;7.00;;;4.03;;
16478;SDS011;8350;52.316;10.530;2023-05-29T00:35:01;5.70;;;3.58;;
16478;SDS011;8350;52.316;10.530;2023-05-29T00:37:28;4.90;;;3.75;;
16478;SDS011;8350;52.316;10.530;2023-05-29T00:39:55;5.15;;;3.58;;
16478;SDS011;8350;52.316;10.530;2023-05-29T00:42:22;4.78;;;3.50;;
16478;SDS011;8350;52.316;10.530;2023-05-29T00:44:49;8.45;;;3.90;;
16478;SDS011;8350;52.316;10.530;2023-05-29T00:47:18;4.20;;;3.53;;
16478;SDS011;8350;52.316;10.530;2023-05-29T00:49:45;4.93;;;3.65;;
16478;SDS011;8350;52.316;10.530;2023-05-29T00:52:12;5.38;;;4.15;;
16478;SDS011;8350;52.316;10.530;2023-05-29T00:54:42;4.32;;;3.72;;
16478;SDS011;8350;52.316;10.530;2023-05-29T00:57:12;4.32;;;3.38;;
16478;SDS011;8350;52.316;10.530;2023-05-29T00:59:40;6.53;;;3.67;;
16478;SDS011;8350;52.316;10.530;2023-05-29T01:02:11;4.38;;;3.42;;
16478;SDS011;8350;52.316;10.530;2023-05-29T01:04:40;8.18;;;3.88;;
16478;SDS011;8350;52.316;10.530;2023-05-29T01:07:07;5.00;;;3.83;;
16478;SDS011;8350;52.316;10.530;2023-05-29T01:09:34;3.83;;;3.35;;
16478;SDS011;8350;52.316;10.530;2023-05-29T01:12:04;4.03;;;3.50;;
16478;SDS011;8350;52.316;10.530;2023-05-29T01:14:44;4.50;;;3.88;;
16478;SDS011;8350;52.316;10.530;2023-05-29T01:17:23;5.32;;;3.45;;
16478;SDS011;8350;52.316;10.530;2023-05-29T01:20:04;5.75;;;3.60;;
16478;SDS011;8350;52.316;10.530;2023-05-29T01:22:40;5.18;;;3.33;;
16478;SDS011;8350;52.316;10.530;2023-05-29T01:25:24;4.13;;;3.72;;
16478;SDS011;8350;52.316;10.530;2023-05-29T01:28:02;4.57;;;3.15;;
16478;SDS011;8350;52.316;10.530;2023-05-29T01:30:33;4.82;;;3.33;;
16478;SDS011;8350;52.316;10.530;2023-05-29T01:33:00;3.92;;;3.47;;
16478;SDS011;8350;52.316;10.530;2023-05-29T01:35:29;4.57;;;3.00;;
16478;SDS011;8350;52.316;10.530;2023-05-29T01:37:57;5.13;;;3.20;;
16478;SDS011;8350;52.316;10.530;2023-05-29T01:40:24;4.35;;;3.28;;
16478;SDS011;8350;52.316;10.530;2023-05-29T01:42:51;4.10;;;3.50;;
16478;SDS011;8350;52.316;10.530;2023-05-29T01:45:21;5.75;;;3.75;;
16478;SDS011;8350;52.316;10.530;2023-05-29T01:47:48;4.85;;;3.17;;
16478;SDS011;8350;52.316;10.530;2023-05-29T01:50:15;5.00;;;3.40;;
16478;SDS011;8350;52.316;10.530;2023-05-29T01:52:44;5.30;;;3.28;;
16478;SDS011;8350;52.316;10.530;2023-05-29T01:55:11;4.28;;;3.28;;
16478;SDS011;8350;52.316;10.530;2023-05-29T01:57:39;3.58;;;3.28;;
16478;SDS011;8350;52.316;10.530;2023-05-29T02:00:08;4.30;;;3.47;;
16478;SDS011;8350;52.316;10.530;2023-05-29T02:02:38;4.13;;;3.50;;
16478;SDS011;8350;52.316;10.530;2023-05-29T02:05:06;4.97;;;3.63;;
16478;SDS011;8350;52.316;10.530;2023-05-29T02:07:34;3.80;;;3.40;;
16478;SDS011;8350;52.316;10.530;2023-05-29T02:10:03;4.78;;;3.40;;
16478;SDS011;8350;52.316;10.530;2023-05-29T02:12:30;4.43;;;4.03;;
16478;SDS011;8350;52.316;10.530;2023-05-29T02:14:57;4.53;;;3.92;;
16478;SDS011;8350;52.316;10.530;2023-05-29T02:17:24;4.25;;;3.65;;
16478;SDS011;8350;52.316;10.530;2023-05-29T02:19:53;4.93;;;3.67;;
16478;SDS011;8350;52.316;10.530;2023-05-29T02:22:20;6.57;;;3.40;;
16478;SDS011;8350;52.316;10.530;2023-05-29T02:24:47;4.40;;;3.38;;
16478;SDS011;8350;52.316;10.530;2023-05-29T02:27:14;4.10;;;3.50;;
16478;SDS011;8350;52.316;10.530;2023-05-29T02:29:42;7.28;;;4.75;;
16478;SDS011;8350;52.316;10.530;2023-05-29T02:32:09;4.78;;;4.05;;
16478;SDS011;8350;52.316;10.530;2023-05-29T02:34:36;4.47;;;3.65;;
16478;SDS011;8350;52.316;10.530;2023-05-29T02:37:05;4.13;;;3.72;;
16478;SDS011;8350;52.316;10.530;2023-05-29T02:39:32;5.10;;;4.28;;
16478;SDS011;8350;52.316;10.530;2023-05-29T02:41:59;5.20;;;3.85;;
16478;SDS011;8350;52.316;10.530;2023-05-29T02:44:26;4.80;;;3.97;;
16478;SDS011;8350;52.316;10.530;2023-05-29T02:46:53;4.72;;;3.75;;
16478;SDS011;8350;52.316;10.530;2023-05-29T02:49:20;4.70;;;3.95;;
16478;SDS011;8350;52.316;10.530;2023-05-29T02:51:47;4.22;;;3.83;;
16478;SDS011;8350;52.316;10.530;2023-05-29T02:54:15;3.97;;;3.55;;
16478;SDS011;8350;52.316;10.530;2023-05-29T02:56:45;4.80;;;3.65;;
16478;SDS011;8350;52.316;10.530;2023-05-29T02:59:12;4.82;;;3.50;;
16478;SDS011;8350;52.316;10.530;2023-05-29T03:01:39;4.18;;;3.80;;
16478;SDS011;8350;52.316;10.530;2023-05-29T03:04:06;4.45;;;3.83;;
16478;SDS011;8350;52.316;10.530;2023-05-29T03:06:34;4.00;;;3.70;;
16478;SDS011;8350;52.316;10.530;2023-05-29T03:09:01;7.75;;;3.75;;
16478;SDS011;8350;52.316;10.530;2023-05-29T03:11:31;3.50;;;3.20;;
16478;SDS011;8350;52.316;10.530;2023-05-29T03:14:00;3.88;;;3.38;;
16478;SDS011;8350;52.316;10.530;2023-05-29T03:16:30;4.50;;;4.03;;
16478;SDS011;8350;52.316;10.530;2023-05-29T03:18:57;4.85;;;3.20;;
16478;SDS011;8350;52.316;10.530;2023-05-29T03:21:24;4.43;;;3.17;;
16478;SDS011;8350;52.316;10.530;2023-05-29T03:23:51;4.22;;;3.50;;
16478;SDS011;8350;52.316;10.530;2023-05-29T03:26:18;3.90;;;3.20;;
16478;SDS011;8350;52.316;10.530;2023-05-29T03:28:48;4.10;;;3.50;;
16478;SDS011;8350;52.316;10.530;2023-05-29T03:31:15;4.18;;;3.35;;
16478;SDS011;8350;52.316;10.530;2023-05-29T03:33:46;4.80;;;3.40;;
16478;SDS011;8350;52.316;10.530;2023-05-29T03:36:13;6.50;;;4.05;;
16478;SDS011;8350;52.316;10.530;2023-05-29T03:38:42;4.60;;;3.50;;
16478;SDS011;8350;52.316;10.530;2023-05-29T03:41:09;6.13;;;3.65;;
16478;SDS011;8350;52.316;10.530;2023-05-29T03:43:37;7.80;;;3.95;;
16478;SDS011;8350;52.316;10.530;2023-05-29T03:46:05;4.35;;;3.38;;
16478;SDS011;8350;52.316;10.530;2023-05-29T03:48:32;5.10;;;3.13;;
16478;SDS011;8350;52.316;10.530;2023-05-29T03:50:59;4.45;;;3.25;;
16478;SDS011;8350;52.316;10.530;2023-05-29T03:53:26;3.83;;;3.42;;
16478;SDS011;8350;52.316;10.530;2023-05-29T03:55:53;4.63;;;3.67;;
16478;SDS011;8350;52.316;10.530;2023-05-29T03:58:20;6.72;;;3.63;;
16478;SDS011;8350;52.316;10.530;2023-05-29T04:00:50;6.50;;;3.63;;
16478;SDS011;8350;52.316;10.530;2023-05-29T04:03:18;4.93;;;3.53;;
16478;SDS011;8350;52.316;10.530;2023-05-29T04:05:45;3.75;;;3.15;;
16478;SDS011;8350;52.316;10.530;2023-05-29T04:08:14;6.63;;;3.35;;
16478;SDS011;8350;52.316;10.530;2023-05-29T04:10:41;4.05;;;3.22;;
16478;SDS011;8350;52.316;10.530;2023-05-29T04:13:08;4.50;;;3.30;;
16478;SDS011;8350;52.316;10.530;2023-05-29T04:15:35;5.55;;;3.35;;
16478;SDS011;8350;52.316;10.530;2023-05-29T04:18:02;4.32;;;3.20;;
16478;SDS011;8350;52.316;10.530;2023-05-29T04:20:31;5.65;;;3.55;;
16478;SDS011;8350;52.316;10.530;2023-05-29T04:22:58;8.20;;;3.25;;
16478;SDS011;8350;52.316;10.530;2023-05-29T04:25:25;3.50;;;3.20;;
16478;SDS011;8350;52.316;10.530;2023-05-29T04:27:52;5.18;;;3.08;;
16478;SDS011;8350;52.316;10.530;2023-05-29T04:30:19;5.43;;;3.20;;
16478;SDS011;8350;52.316;10.530;2023-05-29T04:32:46;4.47;;;2.90;;
16478;SDS011;8350;52.316;10.530;2023-05-29T04:35:13;6.72;;;3.40;;
16478;SDS011;8350;52.316;10.530;2023-05-29T04:37:42;5.15;;;3.50;;
16478;SDS011;8350;52.316;10.530;2023-05-29T04:40:09;5.07;;;3.20;;
16478;SDS011;8350;52.316;10.530;2023-05-29T04:42:38;5.05;;;3.15;;
16478;SDS011;8350;52.316;10.530;2023-05-29T04:45:06;7.45;;;3.20;;
16478;SDS011;8350;52.316;10.530;2023-05-29T04:47:35;5.68;;;3.22;;
16478;SDS011;8350;52.316;10.530;2023-05-29T04:50:09;8.13;;;3.17;;
16478;SDS011;8350;52.316;10.530;2023-05-29T04:52:37;6.63;;;3.88;;
16478;SDS011;8350;52.316;10.530;2023-05-29T04:55:09;5.57;;;3.10;;
16478;SDS011;8350;52.316;10.530;2023-05-29T04:57:36;7.57;;;3.75;;
16478;SDS011;8350;52.316;10.530;2023-05-29T05:00:04;4.57;;;2.63;;
16478;SDS011;8350;52.316;10.530;2023-05-29T05:02:34;8.05;;;3.53;;
16478;SDS011;8350;52.316;10.530;2023-05-29T05:05:01;7.30;;;3.20;;
16478;SDS011;8350;52.316;10.530;2023-05-29T05:07:29;4.53;;;2.92;;
16478;SDS011;8350;52.316;10.530;2023-05-29T05:09:55;7.35;;;2.92;;
16478;SDS011;8350;52.316;10.530;2023-05-29T05:12:24;6.30;;;3.00;;
16478;SDS011;8350;52.316;10.530;2023-05-29T05:14:51;5.97;;;3.05;;
16478;SDS011;8350;52.316;10.530;2023-05-29T05:17:18;6.97;;;2.97;;
16478;SDS011;8350;52.316;10.530;2023-05-29T05:19:45;6.15;;;3.20;;
16478;SDS011;8350;52.316;10.530;2023-05-29T05:22:14;7.20;;;3.10;;
16478;SDS011;8350;52.316;10.530;2023-05-29T05:24:41;7.60;;;3.22;;
16478;SDS011;8350;52.316;10.530;2023-05-29T05:27:08;6.18;;;2.53;;
16478;SDS011;8350;52.316;10.530;2023-05-29T05:29:36;6.38;;;3.08;;
16478;SDS011;8350;52.316;10.530;2023-05-29T05:32:03;6.38;;;3.40;;
16478;SDS011;8350;52.316;10.530;2023-05-29T05:34:31;6.85;;;3.22;;
16478;SDS011;8350;52.316;10.530;2023-05-29T05:36:58;6.22;;;2.67;;
16478;SDS011;8350;52.316;10.530;2023-05-29T05:39:25;6.70;;;2.95;;
16478;SDS011;8350;52.316;10.530;2023-05-29T05:41:52;7.68;;;2.75;;
16478;SDS011;8350;52.316;10.530;2023-05-29T05:44:19;6.32;;;2.78;;
16478;SDS011;8350;52.316;10.530;2023-05-29T05:46:48;6.00;;;2.53;;
16478;SDS011;8350;52.316;10.530;2023-05-29T05:49:15;5.68;;;2.65;;
16478;SDS011;8350;52.316;10.530;2023-05-29T05:51:42;6.22;;;2.80;;
16478;SDS011;8350;52.316;10.530;2023-05-29T05:54:08;7.18;;;2.75;;
16478;SDS011;8350;52.316;10.530;2023-05-29T05:56:35;6.50;;;2.55;;
16478;SDS011;8350;52.316;10.530;2023-05-29T05:59:05;5.75;;;2.60;;
16478;SDS011;8350;52.316;10.530;2023-05-29T06:01:32;6.47;;;2.53;;
16478;SDS011;8350;52.316;10.530;2023-05-29T06:04:00;9.20;;;3.08;;
16478;SDS011;8350;52.316;10.530;2023-05-29T06:06:27;8.13;;;2.47;;
16478;SDS011;8350;52.316;10.530;2023-05-29T06:08:56;9.55;;;3.75;;
16478;SDS011;8350;52.316;10.530;2023-05-29T06:11:23;7.13;;;3.20;;
16478;SDS011;8350;52.316;10.530;2023-05-29T06:13:51;5.10;;;2.83;;
16478;SDS011;8350;52.316;10.530;2023-05-29T06:16:17;7.07;;;3.00;;
16478;SDS011;8350;52.316;10.530;2023-05-29T06:18:45;5.90;;;2.97;;
16478;SDS011;8350;52.316;10.530;2023-05-29T06:21:13;7.18;;;2.85;;
16478;SDS011;8350;52.316;10.530;2023-05-29T06:23:40;6.60;;;2.63;;
16478;SDS011;8350;52.316;10.530;2023-05-29T06:26:07;5.95;;;3.08;;
16478;SDS011;8350;52.316;10.530;2023-05-29T06:28:35;8.13;;;2.85;;
16478;SDS011;8350;52.316;10.530;2023-05-29T06:31:02;8.63;;;2.88;;
16478;SDS011;8350;52.316;10.530;2023-05-29T06:33:29;8.00;;;2.90;;
16478;SDS011;8350;52.316;10.530;2023-05-29T06:35:56;6.82;;;3.33;;
16478;SDS011;8350;52.316;10.530;2023-05-29T06:38:24;9.90;;;3.40;;
16478;SDS011;8350;52.316;10.530;2023-05-29T06:40:51;9.50;;;3.80;;
16478;SDS011;8350;52.316;10.530;2023-05-29T06:43:19;10.27;;;3.42;;
16478;SDS011;8350;52.316;10.530;2023-05-29T06:45:46;8.80;;;3.38;;
16478;SDS011;8350;52.316;10.530;2023-05-29T06:48:13;9.30;;;3.30;;
16478;SDS011;8350;52.316;10.530;2023-05-29T06:50:40;6.38;;;2.80;;
16478;SDS011;8350;52.316;10.530;2023-05-29T06:53:07;11.27;;;3.47;;
16478;SDS011;8350;52.316;10.530;2023-05-29T06:55:35;9.50;;;3.50;;
16478;SDS011;8350;52.316;10.530;2023-05-29T06:58:02;9.07;;;3.35;;
16478;SDS011;8350;52.316;10.530;2023-05-29T07:00:29;8.60;;;2.78;;
16478;SDS011;8350;52.316;10.530;2023-05-29T07:02:56;5.78;;;3.30;;
16478;SDS011;8350;52.316;10.530;2023-05-29T07:05:46;8.50;;;3.28;;
16478;SDS011;8350;52.316;10.530;2023-05-29T07:08:13;7.32;;;2.80;;
16478;SDS011;8350;52.316;10.530;2023-05-29T07:10:42;4.82;;;2.75;;
16478;SDS011;8350;52.316;10.530;2023-05-29T07:13:09;7.10;;;2.90;;
16478;SDS011;8350;52.316;10.530;2023-05-29T07:15:36;7.60;;;3.25;;
16478;SDS011;8350;52.316;10.530;2023-05-29T07:18:04;8.88;;;3.10;;
16478;SDS011;8350;52.316;10.530;2023-05-29T07:20:31;7.68;;;3.17;;
16478;SDS011;8350;52.316;10.530;2023-05-29T07:22:58;8.10;;;3.10;;
16478;SDS011;8350;52.316;10.530;2023-05-29T07:25:25;8.60;;;3.20;;
16478;SDS011;8350;52.316;10.530;2023-05-29T07:27:53;8.13;;;2.92;;
16478;SDS011;8350;52.316;10.530;2023-05-29T07:30:20;8.82;;;3.28;;
16478;SDS011;8350;52.316;10.530;2023-05-29T07:32:50;7.50;;;2.97;;
16478;SDS011;8350;52.316;10.530;2023-05-29T07:35:17;6.93;;;2.63;;
16478;SDS011;8350;52.316;10.530;2023-05-29T07:37:44;6.93;;;2.72;;
16478;SDS011;8350;52.316;10.530;2023-05-29T07:40:13;7.70;;;2.88;;
16478;SDS011;8350;52.316;10.530;2023-05-29T07:42:40;10.68;;;3.10;;
16478;SDS011;8350;52.316;10.530;2023-05-29T07:45:09;7.40;;;2.88;;
16478;SDS011;8350;52.316;10.530;2023-05-29T07:47:38;7.30;;;2.95;;
16478;SDS011;8350;52.316;10.530;2023-05-29T07:50:05;6.80;;;3.00;;
16478;SDS011;8350;52.316;10.530;2023-05-29T07:52:33;5.72;;;2.67;;
16478;SDS011;8350;52.316;10.530;2023-05-29T07:55:00;8.75;;;3.35;;
16478;SDS011;8350;52.316;10.530;2023-05-29T07:57:27;7.93;;;2.65;;
16478;SDS011;8350;52.316;10.530;2023-05-29T07:59:54;7.22;;;3.22;;
16478;SDS011;8350;52.316;10.530;2023-05-29T08:02:22;8.23;;;3.03;;
16478;SDS011;8350;52.316;10.530;2023-05-29T08:04:49;6.70;;;2.83;;
16478;SDS011;8350;52.316;10.530;2023-05-29T08:07:17;10.35;;;3.80;;
16478;SDS011;8350;52.316;10.530;2023-05-29T08:09:44;8.82;;;2.80;;
16478;SDS011;8350;52.316;10.530;2023-05-29T08:12:12;9.13;;;2.97;;
16478;SDS011;8350;52.316;10.530;2023-05-29T08:14:42;10.27;;;3.55;;
16478;SDS011;8350;52.316;10.530;2023-05-29T08:17:09;7.97;;;2.55;;
16478;SDS011;8350;52.316;10.530;2023-05-29T08:19:38;6.35;;;3.22;;
16478;SDS011;8350;52.316;10.530;2023-05-29T08:22:05;7.60;;;3.33;;
16478;SDS011;8350;52.316;10.530;2023-05-29T08:24:32;7.60;;;2.70;;
16478;SDS011;8350;52.316;10.530;2023-05-29T08:26:59;6.85;;;2.88;;
16478;SDS011;8350;52.316;10.530;2023-05-29T08:29:26;8.10;;;3.30;;
16478;SDS011;8350;52.316;10.530;2023-05-29T08:31:53;6.53;;;3.15;;
16478;SDS011;8350;52.316;10.530;2023-05-29T08:34:20;8.00;;;2.80;;
16478;SDS011;8350;52.316;10.530;2023-05-29T08:36:48;4.85;;;2.85;;
16478;SDS011;8350;52.316;10.530;2023-05-29T08:39:16;7.18;;;2.42;;
16478;SDS011;8350;52.316;10.530;2023-05-29T08:41:45;6.32;;;2.42;;
16478;SDS011;8350;52.316;10.530;2023-05-29T08:44:19;5.00;;;2.15;;
16478;SDS011;8350;52.316;10.530;2023-05-29T08:46:49;6.32;;;2.67;;
16478;SDS011;8350;52.316;10.530;2023-05-29T08:49:20;9.20;;;3.13;;
16478;SDS011;8350;52.316;10.530;2023-05-29T08:51:56;11.48;;;3.13;;
16478;SDS011;8350;52.316;10.530;2023-05-29T08:54:31;6.07;;;2.67;;
16478;SDS011;8350;52.316;10.530;2023-05-29T08:56:59;7.43;;;2.35;;
16478;SDS011;8350;52.316;10.530;2023-05-29T08:59:30;6.93;;;2.95;;
16478;SDS011;8350;52.316;10.530;2023-05-29T09:02:02;5.80;;;2.50;;
16478;SDS011;8350;52.316;10.530;2023-05-29T09:04:33;7.07;;;3.10;;
16478;SDS011;8350;52.316;10.530;2023-05-29T09:07:02;6.47;;;2.97;;
16478;SDS011;8350;52.316;10.530;2023-05-29T09:09:30;4.57;;;2.65;;
16478;SDS011;8350;52.316;10.530;2023-05-29T09:11:58;7.10;;;2.80;;
16478;SDS011;8350;52.316;10.530;2023-05-29T09:14:31;7.03;;;2.53;;
16478;SDS011;8350;52.316;10.530;2023-05-29T09:17:00;5.85;;;2.92;;
16478;SDS011;8350;52.316;10.530;2023-05-29T09:19:28;4.68;;;2.20;;
16478;SDS011;8350;52.316;10.530;2023-05-29T09:22:03;6.75;;;2.40;;
16478;SDS011;8350;52.316;10.530;2023-05-29T09:24:32;5.20;;;2.60;;
16478;SDS011;8350;52.316;10.530;2023-05-29T09:26:59;6.07;;;2.58;;
16478;SDS011;8350;52.316;10.530;2023-05-29T09:29:26;7.65;;;2.80;;
16478;SDS011;8350;52.316;10.530;2023-05-29T09:31:53;6.28;;;2.60;;
16478;SDS011;8350;52.316;10.530;2023-05-29T09:34:23;7.90;;;2.63;;
16478;SDS011;8350;52.316;10.530;2023-05-29T09:36:51;7.05;;;3.67;;
16478;SDS011;8350;52.316;10.530;2023-05-29T09:39:20;6.63;;;2.75;;
16478;SDS011;8350;52.316;10.530;2023-05-29T09:41:47;4.72;;;2.75;;
16478;SDS011;8350;52.316;10.530;2023-05-29T09:44:18;6.13;;;2.45;;
16478;SDS011;8350;52.316;10.530;2023-05-29T09:46:45;5.32;;;2.25;;
16478;SDS011;8350;52.316;10.530;2023-05-29T09:49:15;5.75;;;2.90;;
16478;SDS011;8350;52.316;10.530;2023-05-29T09:51:42;4.78;;;2.25;;
16478;SDS011;8350;52.316;10.530;2023-05-29T09:54:13;3.75;;;2.30;;
16478;SDS011;8350;52.316;10.530;2023-05-29T09:56:43;5.53;;;2.22;;
16478;SDS011;8350;52.316;10.530;2023-05-29T09:59:12;4.22;;;2.38;;
16478;SDS011;8350;52.316;10.530;2023-05-29T10:01:40;5.32;;;2.30;;
16478;SDS011;8350;52.316;10.530;2023-05-29T10:04:10;3.25;;;1.65;;
16478;SDS011;8350;52.316;10.530;2023-05-29T10:06:42;6.63;;;2.35;;
16478;SDS011;8350;52.316;10.530;2023-05-29T10:09:12;5.18;;;2.03;;
16478;SDS011;8350;52.316;10.530;2023-05-29T10:11:48;5.20;;;2.50;;
16478;SDS011;8350;52.316;10.530;2023-05-29T10:14:18;5.38;;;2.30;;
16478;SDS011;8350;52.316;10.530;2023-05-29T10:16:46;4.65;;;2.45;;
16478;SDS011;8350;52.316;10.530;2023-05-29T10:19:17;6.35;;;2.25;;
16478;SDS011;8350;52.316;10.530;2023-05-29T10:21:54;4.47;;;1.75;;
16478;SDS011;8350;52.316;10.530;2023-05-29T10:24:22;5.90;;;2.28;;
16478;SDS011;8350;52.316;10.530;2023-05-29T10:26:51;4.30;;;2.15;;
16478;SDS011;8350;52.316;10.530;2023-05-29T10:29:23;4.53;;;2.20;;
16478;SDS011;8350;52.316;10.530;2023-05-29T10:32:00;5.47;;;2.20;;
16478;SDS011;8350;52.316;10.530;2023-05-29T10:34:34;3.20;;;1.95;;
16478;SDS011;8350;52.316;10.530;2023-05-29T10:37:18;4.65;;;2.58;;
16478;SDS011;8350;52.316;10.530;2023-05-29T10:40:02;9.00;;;3.05;;
16478;SDS011;8350;52.316;10.530;2023-05-29T10:42:44;5.18;;;2.33;;
16478;SDS011;8350;52.316;10.530;2023-05-29T10:51:27;4.40;;;2.45;;
16478;SDS011;8350;52.316;10.530;2023-05-29T10:53:56;4.80;;;2.45;;
16478;SDS011;8350;52.316;10.530;2023-05-29T10:56:23;7.18;;;3.05;;
16478;SDS011;8350;52.316;10.530;2023-05-29T10:58:57;4.85;;;2.10;;
16478;SDS011;8350;52.316;10.530;2023-05-29T11:01:27;5.88;;;2.60;;
16478;SDS011;8350;52.316;10.530;2023-05-29T11:06:53;4.13;;;2.85;;
16478;SDS011;8350;52.316;10.530;2023-05-29T11:09:26;5.82;;;2.55;;
16478;SDS011;8350;52.316;10.530;2023-05-29T11:14:55;4.47;;;2.58;;
16478;SDS011;8350;52.316;10.530;2023-05-29T11:17:29;9.80;;;2.60;;
16478;SDS011;8350;52.316;10.530;2023-05-29T11:20:17;4.65;;;2.20;;
16478;SDS011;8350;52.316;10.530;2023-05-29T11:23:00;4.90;;;2.30;;
16478;SDS011;8350;52.316;10.530;2023-05-29T11:25:35;6.03;;;2.08;;
16478;SDS011;8350;52.316;10.530;2023-05-29T11:28:03;4.03;;;2.20;;
16478;SDS011;8350;52.316;10.530;2023-05-29T11:33:25;5.20;;;2.70;;
16478;SDS011;8350;52.316;10.530;2023-05-29T11:35:56;7.68;;;2.97;;
16478;SDS011;8350;52.316;10.530;2023-05-29T11:38:24;7.50;;;3.08;;
16478;SDS011;8350;52.316;10.530;2023-05-29T11:40:52;4.80;;;2.55;;
16478;SDS011;8350;52.316;10.530;2023-05-29T11:43:20;4.57;;;2.40;;
16478;SDS011;8350;52.316;10.530;2023-05-29T11:45:47;4.55;;;2.40;;
16478;SDS011;8350;52.316;10.530;2023-05-29T11:48:15;6.82;;;2.70;;
16478;SDS011;8350;52.316;10.530;2023-05-29T11:50:42;4.95;;;2.63;;
16478;SDS011;8350;52.316;10.530;2023-05-29T11:53:10;5.03;;;2.50;;
16478;SDS011;8350;52.316;10.530;2023-05-29T11:55:38;4.13;;;2.55;;
16478;SDS011;8350;52.316;10.530;2023-05-29T11:58:05;4.43;;;2.78;;
16478;SDS011;8350;52.316;10.530;2023-05-29T12:00:32;5.85;;;2.78;;
16478;SDS011;8350;52.316;10.530;2023-05-29T12:03:00;5.47;;;2.53;;
16478;SDS011;8350;52.316;10.530;2023-05-29T12:05:30;6.07;;;2.53;;
16478;SDS011;8350;52.316;10.530;2023-05-29T12:07:57;4.97;;;2.50;;
16478;SDS011;8350;52.316;10.530;2023-05-29T12:10:27;5.85;;;2.60;;
16478;SDS011;8350;52.316;10.530;2023-05-29T12:12:55;5.40;;;2.38;;
16478;SDS011;8350;52.316;10.530;2023-05-29T12:15:24;4.53;;;2.63;;
16478;SDS011;8350;52.316;10.530;2023-05-29T12:17:51;3.58;;;1.85;;
16478;SDS011;8350;52.316;10.530;2023-05-29T12:20:19;4.45;;;2.55;;
16478;SDS011;8350;52.316;10.530;2023-05-29T12:22:58;5.38;;;2.47;;
16478;SDS011;8350;52.316;10.530;2023-05-29T12:25:26;3.88;;;2.05;;
16478;SDS011;8350;52.316;10.530;2023-05-29T12:27:55;5.68;;;2.30;;
16478;SDS011;8350;52.316;10.530;2023-05-29T12:30:23;4.55;;;2.40;;
16478;SDS011;8350;52.316;10.530;2023-05-29T12:32:51;4.97;;;2.63;;
16478;SDS011;8350;52.316;10.530;2023-05-29T12:35:19;4.97;;;2.42;;
16478;SDS011;8350;52.316;10.530;2023-05-29T12:37:48;3.72;;;2.20;;
16478;SDS011;8350;52.316;10.530;2023-05-29T12:40:21;4.88;;;2.45;;
16478;SDS011;8350;52.316;10.530;2023-05-29T12:42:52;4.28;;;2.25;;
16478;SDS011;8350;52.316;10.530;2023-05-29T12:45:22;4.57;;;2.25;;
16478;SDS011;8350;52.316;10.530;2023-05-29T12:47:51;2.67;;;1.92;;
16478;SDS011;8350;52.316;10.530;2023-05-29T12:50:20;5.72;;;2.42;;
16478;SDS011;8350;52.316;10.530;2023-05-29T12:52:55;3.58;;;1.98;;
16478;SDS011;8350;52.316;10.530;2023-05-29T12:55:24;5.00;;;2.35;;
16478;SDS011;8350;52.316;10.530;2023-05-29T12:57:53;4.28;;;2.47;;
16478;SDS011;8350;52.316;10.530;2023-05-29T13:00:20;4.18;;;2.50;;
16478;SDS011;8350;52.316;10.530;2023-05-29T13:02:48;5.05;;;2.13;;
16478;SDS011;8350;52.316;10.530;2023-05-29T13:05:15;4.43;;;2.30;;
16478;SDS011;8350;52.316;10.530;2023-05-29T13:07:44;4.50;;;2.25;;
16478;SDS011;8350;52.316;10.530;2023-05-29T13:10:15;4.95;;;2.42;;
16478;SDS011;8350;52.316;10.530;2023-05-29T13:12:43;4.90;;;2.42;;
16478;SDS011;8350;52.316;10.530;2023-05-29T13:15:11;4.25;;;2.33;;
16478;SDS011;8350;52.316;10.530;2023-05-29T13:17:39;3.38;;;2.25;;
16478;SDS011;8350;52.316;10.530;2023-05-29T13:20:08;5.65;;;2.53;;
16478;SDS011;8350;52.316;10.530;2023-05-29T13:22:36;3.53;;;2.20;;
16478;SDS011;8350;52.316;10.530;2023-05-29T13:25:03;5.25;;;2.45;;
16478;SDS011;8350;52.316;10.530;2023-05-29T13:27:32;3.65;;;2.15;;
16478;SDS011;8350;52.316;10.530;2023-05-29T13:30:05;5.32;;;2.78;;
16478;SDS011;8350;52.316;10.530;2023-05-29T13:32:33;5.50;;;2.67;;
16478;SDS011;8350;52.316;10.530;2023-05-29T13:35:00;6.15;;;2.70;;
16478;SDS011;8350;52.316;10.530;2023-05-29T13:37:28;6.15;;;2.42;;
16478;SDS011;8350;52.316;10.530;2023-05-29T13:39:55;3.58;;;2.20;;
16478;SDS011;8350;52.316;10.530;2023-05-29T13:42:22;5.93;;;2.20;;
16478;SDS011;8350;52.316;10.530;2023-05-29T13:44:49;5.20;;;2.53;;
16478;SDS011;8350;52.316;10.530;2023-05-29T13:47:18;4.70;;;2.42;;
16478;SDS011;8350;52.316;10.530;2023-05-29T13:49:45;4.80;;;2.30;;
16478;SDS011;8350;52.316;10.530;2023-05-29T13:52:12;6.22;;;2.65;;
16478;SDS011;8350;52.316;10.530;2023-05-29T13:54:39;5.10;;;2.83;;
16478;SDS011;8350;52.316;10.530;2023-05-29T13:57:06;5.30;;;2.38;;
16478;SDS011;8350;52.316;10.530;2023-05-29T13:59:34;4.95;;;2.70;;
16478;SDS011;8350;52.316;10.530;2023-05-29T14:02:01;5.78;;;2.72;;
16478;SDS011;8350;52.316;10.530;2023-05-29T14:04:30;5.30;;;2.80;;
16478;SDS011;8350;52.316;10.530;2023-05-29T14:06:57;5.90;;;2.85;;
16478;SDS011;8350;52.316;10.530;2023-05-29T14:09:24;5.97;;;2.40;;
16478;SDS011;8350;52.316;10.530;2023-05-29T14:11:53;3.75;;;2.10;;
16478;SDS011;8350;52.316;10.530;2023-05-29T14:14:20;5.78;;;2.60;;
16478;SDS011;8350;52.316;10.530;2023-05-29T14:16:48;3.90;;;2.30;;
16478;SDS011;8350;52.316;10.530;2023-05-29T14:19:16;3.28;;;2.05;;
16478;SDS011;8350;52.316;10.530;2023-05-29T14:21:45;3.72;;;2.28;;
16478;SDS011;8350;52.316;10.530;2023-05-29T14:24:12;4.15;;;2.30;;
16478;SDS011;8350;52.316;10.530;2023-05-29T14:26:40;5.10;;;2.35;;
16478;SDS011;8350;52.316;10.530;2023-05-29T14:29:18;5.28;;;2.67;;
16478;SDS011;8350;52.316;10.530;2023-05-29T14:31:44;4.85;;;2.30;;
16478;SDS011;8350;52.316;10.530;2023-05-29T14:34:11;6.57;;;2.50;;
16478;SDS011;8350;52.316;10.530;2023-05-29T14:36:39;5.32;;;2.15;;
16478;SDS011;8350;52.316;10.530;2023-05-29T14:39:10;5.72;;;2.13;;
16478;SDS011;8350;52.316;10.530;2023-05-29T14:41:37;3.95;;;2.20;;
16478;SDS011;8350;52.316;10.530;2023-05-29T14:44:05;5.30;;;2.22;;
16478;SDS011;8350;52.316;10.530;2023-05-29T14:46:32;4.22;;;2.53;;
16478;SDS011;8350;52.316;10.530;2023-05-29T14:48:59;5.05;;;2.75;;
16478;SDS011;8350;52.316;10.530;2023-05-29T14:51:26;5.05;;;2.15;;
16478;SDS011;8350;52.316;10.530;2023-05-29T14:53:53;4.22;;;2.58;;
16478;SDS011;8350;52.316;10.530;2023-05-29T14:56:22;3.67;;;2.35;;
16478;SDS011;8350;52.316;10.530;2023-05-29T14:58:49;4.70;;;2.20;;
16478;SDS011;8350;52.316;10.530;2023-05-29T15:01:17;2.75;;;2.20;;
16478;SDS011;8350;52.316;10.530;2023-05-29T15:03:47;4.22;;;2.35;;
16478;SDS011;8350;52.316;10.530;2023-05-29T15:06:14;4.03;;;2.10;;
16478;SDS011;8350;52.316;10.530;2023-05-29T15:08:41;3.13;;;2.00;;
16478;SDS011;8350;52.316;10.530;2023-05-29T15:11:08;5.25;;;2.35;;